Time,TemperatureF,DewpointF,PressureIn,WindDirection,WindDirectionDegrees,WindSpeedMPH,WindSpeedGustMPH,Humidity,HourlyPrecipIn,Conditions,Clouds,dailyrainin,SoftwareType,DateUTC
2013-05-04 00:01:00,72.5,66.3,29.80,ENE,58,5.1,11.5,81,0.00,RA,OVC,0.00,WeatherDisplay:10.37,2013-05-04 04:01:00,
2013-05-04 00:06:00,72.5,66.3,29.80,NNE,27,2.5,5.2,81,0.00,RA,OVC,0.00,WeatherDisplay:10.37,2013-05-04 04:06:00,
2013-05-04 00:11:00,72.5,66.3,29.80,NE,47,3.7,5.8,81,0.00,CLR,OVC,0.00,WeatherDisplay:10.37,2013-05-04 04:11:00,
2013-05-04 00:16:00,72.3,66.1,29.80,NE,35,3.0,4.6,81,0.00,CLR,OVC,0.00,WeatherDisplay:10.37,2013-05-04 04:16:00,
2013-05-04 00:21:00,72.3,66.5,29.80,NE,34,2.2,5.8,82,0.00,CLR,OVC,0.00,WeatherDisplay:10.37,2013-05-04 04:21:00,
2013-05-04 00:26:00,72.3,66.5,29.79,NNE,13,1.4,3.5,82,0.00,CLR,OVC,0.00,WeatherDisplay:10.37,2013-05-04 04:26:00,
2013-05-04 00:31:00,72.3,66.5,29.79,North,7,1.1,3.5,82,0.00,CLR,OVC,0.00,WeatherDisplay:10.37,2013-05-04 04:31:00,
2013-05-04 00:36:00,72.2,66.4,29.79,NNE,27,0.1,2.3,82,0.00,CLR,OVC,0.00,WeatherDisplay:10.37,2013-05-04 04:36:00,
2013-05-04 00:41:00,72.2,66.4,29.79,North,357,0.0,0.0,82,0.00,CLR,OVC,0.00,WeatherDisplay:10.37,2013-05-04 04:41:00,
2013-05-04 00:46:00,72.1,66.3,29.79,NNE,14,0.1,2.3,82,0.00,CLR,OVC,0.00,WeatherDisplay:10.37,2013-05-04 04:46:00,
2013-05-04 00:51:00,72.0,66.2,29.79,North,354,0.5,2.3,82,0.00,CLR,OVC,0.00,WeatherDisplay:10.37,2013-05-04 04:51:00,
2013-05-04 00:56:00,71.9,66.5,29.78,NE,38,0.2,2.3,83,0.00,CLR,OVC,0.00,WeatherDisplay:10.37,2013-05-04 04:56:00,
2013-05-04 01:01:00,71.8,66.4,29.78,NE,38,1.7,2.4,83,0.00,CLR,OVC,0.00,WeatherDisplay:10.37,2013-05-04 05:01:00,
2013-05-04 01:06:00,71.6,66.2,29.78,North,356,0.9,3.5,83,0.00,CLR,OVC,0.00,WeatherDisplay:10.37,2013-05-04 05:06:00,
2013-05-04 01:11:00,71.7,66.3,29.78,NW,313,0.0,0.0,83,0.00,CLR,OVC,0.00,WeatherDisplay:10.37,2013-05-04 05:11:00,
2013-05-04 01:16:00,71.6,66.2,29.78,NW,319,0.0,0.0,83,0.00,CLR,OVC,0.00,WeatherDisplay:10.37,2013-05-04 05:16:00,
2013-05-04 01:21:00,71.5,66.1,29.78,NNW,342,0.4,0.6,83,0.00,CLR,OVC,0.00,WeatherDisplay:10.37,2013-05-04 05:21:00,
2013-05-04 01:26:00,71.5,66.4,29.78,NW,325,0.2,0.3,84,0.00,CLR,OVC,0.00,WeatherDisplay:10.37,2013-05-04 05:26:00,
2013-05-04 01:31:00,71.4,66.3,29.78,North,359,0.0,0.0,84,0.00,CLR,OVC,0.00,WeatherDisplay:10.37,2013-05-04 05:31:00,
2013-05-04 01:36:00,71.2,66.1,29.77,North,359,0.0,0.0,84,0.00,CLR,OVC,0.00,WeatherDisplay:10.37,2013-05-04 05:36:00,
2013-05-04 01:41:00,71.0,65.9,29.77,NW,319,1.3,3.5,84,0.00,CLR,OVC,0.00,WeatherDisplay:10.37,2013-05-04 05:41:00,
2013-05-04 01:46:00,71.0,65.9,29.77,NNE,27,2.3,3.8,84,0.00,CLR,OVC,0.00,WeatherDisplay:10.37,2013-05-04 05:46:00,
2013-05-04 01:51:00,70.8,66.1,29.77,NNE,17,1.4,4.6,85,0.00,CLR,OVC,0.00,WeatherDisplay:10.37,2013-05-04 05:51:00,
2013-05-04 01:56:00,70.8,66.1,29.77,NNE,17,2.1,3.5,85,0.00,CLR,OVC,0.00,WeatherDisplay:10.37,2013-05-04 05:56:00,
2013-05-04 02:01:00,70.6,65.9,29.76,North,7,1.1,3.5,85,0.00,CLR,OVC,0.00,WeatherDisplay:10.37,2013-05-04 06:01:00,
2013-05-04 02:06:00,70.7,66.0,29.76,North,359,2.1,4.6,85,0.00,CLR,OVC,0.00,WeatherDisplay:10.37,2013-05-04 06:06:00,
2013-05-04 02:11:00,70.7,66.0,29.76,NNE,28,1.4,2.3,85,0.00,CLR,OVC,0.00,WeatherDisplay:10.37,2013-05-04 06:11:00,
2013-05-04 02:16:00,70.6,65.9,29.75,NNE,20,2.9,4.6,85,0.00,CLR,OVC,0.00,WeatherDisplay:10.37,2013-05-04 06:16:00,
2013-05-04 02:21:00,70.6,65.9,29.75,North,7,1.6,3.5,85,0.00,CLR,OVC,0.00,WeatherDisplay:10.37,2013-05-04 06:21:00,
2013-05-04 02:26:00,70.5,66.1,29.75,ENE,64,2.9,4.6,86,0.00,CLR,OVC,0.00,WeatherDisplay:10.37,2013-05-04 06:26:00,
2013-05-04 02:31:00,70.5,66.1,29.75,NE,52,3.4,5.8,86,0.00,CLR,OVC,0.00,WeatherDisplay:10.37,2013-05-04 06:31:00,
2013-05-04 02:36:00,70.4,66.0,29.74,NE,54,3.1,4.6,86,0.00,CLR,OVC,0.00,WeatherDisplay:10.37,2013-05-04 06:36:00,
2013-05-04 02:41:00,70.5,66.1,29.74,NNE,25,0.0,0.0,86,0.00,CLR,OVC,0.00,WeatherDisplay:10.37,2013-05-04 06:41:00,
2013-05-04 02:46:00,70.5,66.1,29.74,North,11,0.0,0.0,86,0.00,CLR,OVC,0.00,WeatherDisplay:10.37,2013-05-04 06:46:00,
2013-05-04 02:51:00,70.5,66.1,29.74,NNE,18,0.0,0.0,86,0.00,CLR,OVC,0.00,WeatherDisplay:10.37,2013-05-04 06:51:00,
2013-05-04 02:56:00,70.5,66.1,29.74,NW,319,0.0,2.3,86,0.00,CLR,OVC,0.00,WeatherDisplay:10.37,2013-05-04 06:56:00,
2013-05-04 03:01:00,70.6,66.2,29.74,WNW,289,1.0,2.3,86,0.00,CLR,OVC,0.00,WeatherDisplay:10.37,2013-05-04 07:01:00,
2013-05-04 03:06:00,70.4,66.0,29.74,NW,322,0.0,0.0,86,0.00,CLR,OVC,0.00,WeatherDisplay:10.37,2013-05-04 07:06:00,
2013-05-04 03:11:00,70.4,66.0,29.74,NW,322,0.0,0.0,86,0.00,CLR,OVC,0.00,WeatherDisplay:10.37,2013-05-04 07:11:00,
2013-05-04 03:16:00,70.2,65.8,29.74,NW,305,0.1,2.3,86,0.00,CLR,OVC,0.00,WeatherDisplay:10.37,2013-05-04 07:16:00,
2013-05-04 03:21:00,70.2,65.8,29.74,North,10,0.6,0.6,86,0.00,CLR,OVC,0.00,WeatherDisplay:10.37,2013-05-04 07:21:00,
2013-05-04 03:26:00,70.2,66.1,29.73,North,10,0.0,0.0,87,0.00,CLR,OVC,0.00,WeatherDisplay:10.37,2013-05-04 07:26:00,
2013-05-04 03:31:00,70.1,66.0,29.73,NNW,336,1.4,2.3,87,0.00,CLR,OVC,0.00,WeatherDisplay:10.37,2013-05-04 07:31:00,
2013-05-04 03:36:00,70.1,66.0,29.73,NNW,335,0.0,1.1,87,0.00,CLR,OVC,0.00,WeatherDisplay:10.37,2013-05-04 07:36:00,
2013-05-04 03:41:00,70.0,66.0,29.73,North,4,0.9,2.3,87,0.00,CLR,OVC,0.00,WeatherDisplay:10.37,2013-05-04 07:41:00,
2013-05-04 03:46:00,69.9,65.9,29.73,North,8,1.6,2.3,87,0.00,CLR,OVC,0.00,WeatherDisplay:10.37,2013-05-04 07:46:00,
2013-05-04 03:51:00,70.0,66.0,29.73,North,4,0.1,1.1,87,0.00,CLR,OVC,0.00,WeatherDisplay:10.37,2013-05-04 07:51:00,
2013-05-04 03:56:00,70.0,66.0,29.73,NNE,18,1.3,1.6,87,0.00,CLR,OVC,0.00,WeatherDisplay:10.37,2013-05-04 07:56:00,
2013-05-04 04:01:00,69.9,65.9,29.73,NNE,30,1.0,2.3,87,0.00,CLR,OVC,0.00,WeatherDisplay:10.37,2013-05-04 08:01:00,
2013-05-04 04:06:00,69.8,65.8,29.72,East,80,0.3,2.3,87,0.00,CLR,OVC,0.00,WeatherDisplay:10.37,2013-05-04 08:06:00,
2013-05-04 04:11:00,69.7,66.0,29.72,ENE,64,0.6,2.2,88,0.00,CLR,OVC,0.00,WeatherDisplay:10.37,2013-05-04 08:11:00,
2013-05-04 04:16:00,69.5,65.8,29.72,North,10,1.8,2.3,88,0.00,CLR,OVC,0.00,WeatherDisplay:10.37,2013-05-04 08:16:00,
2013-05-04 04:21:00,69.6,65.9,29.72,North,4,2.1,3.5,88,0.00,CLR,OVC,0.00,WeatherDisplay:10.37,2013-05-04 08:21:00,
2013-05-04 04:26:00,69.6,65.9,29.72,NNW,335,1.0,1.6,88,0.00,CLR,OVC,0.00,WeatherDisplay:10.37,2013-05-04 08:26:00,
2013-05-04 04:31:00,69.6,65.9,29.73,NW,308,0.0,1.1,88,0.00,CLR,OVC,0.00,WeatherDisplay:10.37,2013-05-04 08:31:00,
2013-05-04 04:36:00,69.5,65.8,29.73,North,3,0.0,0.0,88,0.00,CLR,OVC,0.00,WeatherDisplay:10.37,2013-05-04 08:36:00,
2013-05-04 04:41:00,69.5,65.8,29.73,North,3,0.0,0.0,88,0.00,CLR,OVC,0.00,WeatherDisplay:10.37,2013-05-04 08:41:00,
2013-05-04 04:46:00,69.5,66.1,29.73,North,3,0.0,0.0,89,0.00,CLR,OVC,0.00,WeatherDisplay:10.37,2013-05-04 08:46:00,
2013-05-04 04:51:00,69.4,66.0,29.73,North,3,0.0,0.0,89,0.00,CLR,OVC,0.00,WeatherDisplay:10.37,2013-05-04 08:51:00,
2013-05-04 04:56:00,69.5,66.1,29.73,NW,320,0.7,2.3,89,0.00,CLR,OVC,0.00,WeatherDisplay:10.37,2013-05-04 08:56:00,
2013-05-04 05:01:00,69.3,65.9,29.73,NNW,332,0.0,0.0,89,0.00,CLR,OVC,0.00,WeatherDisplay:10.37,2013-05-04 09:01:00,
2013-05-04 05:06:00,69.3,65.9,29.73,NW,305,0.4,1.1,89,0.00,CLR,OVC,0.00,WeatherDisplay:10.37,2013-05-04 09:06:00,
2013-05-04 05:11:00,69.2,65.8,29.73,NW,305,0.0,0.0,89,0.00,CLR,OVC,0.00,WeatherDisplay:10.37,2013-05-04 09:11:00,
2013-05-04 05:16:00,69.0,65.6,29.74,NW,305,0.0,0.0,89,0.00,CLR,OVC,0.00,WeatherDisplay:10.37,2013-05-04 09:16:00,
2013-05-04 05:21:00,69.0,65.6,29.73,North,3,0.0,0.0,89,0.00,CLR,OVC,0.00,WeatherDisplay:10.37,2013-05-04 09:21:00,
2013-05-04 05:26:00,69.1,66.0,29.73,North,3,0.0,0.0,90,0.00,CLR,OVC,0.00,WeatherDisplay:10.37,2013-05-04 09:26:00,
2013-05-04 05:31:00,69.1,65.7,29.73,North,3,0.0,0.0,89,0.00,CLR,OVC,0.00,WeatherDisplay:10.37,2013-05-04 09:31:00,
2013-05-04 05:36:00,69.0,65.9,29.74,North,3,0.0,0.0,90,0.00,CLR,OVC,0.00,WeatherDisplay:10.37,2013-05-04 09:36:00,
2013-05-04 05:41:00,68.9,65.8,29.74,North,3,0.0,0.0,90,0.00,CLR,OVC,0.00,WeatherDisplay:10.37,2013-05-04 09:41:00,
2013-05-04 05:46:00,68.9,65.8,29.74,North,3,0.0,0.0,90,0.00,CLR,OVC,0.00,WeatherDisplay:10.37,2013-05-04 09:46:00,
2013-05-04 05:51:00,68.8,65.7,29.74,North,3,0.0,0.0,90,0.00,CLR,OVC,0.00,WeatherDisplay:10.37,2013-05-04 09:51:00,
2013-05-04 05:56:00,68.7,65.6,29.74,North,3,0.0,0.0,90,0.00,CLR,OVC,0.00,WeatherDisplay:10.37,2013-05-04 09:56:00,
2013-05-04 06:01:00,68.7,65.6,29.74,North,3,0.0,0.0,90,0.00,CLR,OVC,0.00,WeatherDisplay:10.37,2013-05-04 10:01:00,
2013-05-04 06:06:00,68.6,65.5,29.75,North,3,0.0,0.0,90,0.00,CLR,OVC,0.00,WeatherDisplay:10.37,2013-05-04 10:06:00,
2013-05-04 06:11:00,68.4,65.4,29.75,North,3,0.0,0.0,90,0.00,CLR,OVC,0.00,WeatherDisplay:10.37,2013-05-04 10:11:00,
2013-05-04 06:16:00,68.5,65.4,29.75,North,3,0.0,0.0,90,0.00,CLR,OVC,0.00,WeatherDisplay:10.37,2013-05-04 10:16:00,
2013-05-04 06:21:00,68.5,65.4,29.75,North,3,0.0,0.0,90,0.00,CLR,OVC,0.00,WeatherDisplay:10.37,2013-05-04 10:21:00,
2013-05-04 06:26:00,68.5,65.4,29.75,North,3,0.0,0.0,90,0.00,CLR,OVC,0.00,WeatherDisplay:10.37,2013-05-04 10:26:00,
2013-05-04 06:31:00,68.5,65.4,29.75,North,3,0.0,0.0,90,0.00,CLR,OVC,0.00,WeatherDisplay:10.37,2013-05-04 10:31:00,
2013-05-04 06:36:00,68.5,65.8,29.75,North,3,0.0,0.0,91,0.00,CLR,OVC,0.00,WeatherDisplay:10.37,2013-05-04 10:36:00,
2013-05-04 06:41:00,68.4,65.7,29.76,North,3,0.0,0.0,91,0.00,CLR,OVC,0.00,WeatherDisplay:10.37,2013-05-04 10:41:00,
2013-05-04 06:46:00,68.7,66.0,29.76,North,3,0.0,0.0,91,0.00,CLR,OVC,0.00,WeatherDisplay:10.37,2013-05-04 10:46:00,
2013-05-04 06:51:00,68.8,66.1,29.76,North,3,0.0,0.0,91,0.00,CLR,OVC,0.00,WeatherDisplay:10.37,2013-05-04 10:51:00,
2013-05-04 06:56:00,68.8,66.1,29.76,North,3,0.0,0.0,91,0.00,CLR,OVC,0.00,WeatherDisplay:10.37,2013-05-04 10:56:00,
2013-05-04 07:01:00,68.8,66.4,29.76,North,3,0.0,0.0,92,0.00,CLR,OVC,0.00,WeatherDisplay:10.37,2013-05-04 11:01:00,
2013-05-04 07:06:00,69.0,66.6,29.76,North,3,0.0,0.0,92,0.00,CLR,OVC,0.00,WeatherDisplay:10.37,2013-05-04 11:06:00,
2013-05-04 07:11:00,69.1,66.7,29.77,North,3,0.0,0.0,92,0.00,CLR,OVC,0.00,WeatherDisplay:10.37,2013-05-04 11:11:00,
2013-05-04 07:16:00,69.3,66.9,29.77,North,3,0.0,0.0,92,0.00,CLR,OVC,0.00,WeatherDisplay:10.37,2013-05-04 11:16:00,
2013-05-04 07:21:00,69.5,67.1,29.77,North,3,0.0,0.0,92,0.00,CLR,OVC,0.00,WeatherDisplay:10.37,2013-05-04 11:21:00,
2013-05-04 07:26:00,69.5,67.1,29.77,ESE,104,1.4,2.3,92,0.00,CLR,OVC,0.00,WeatherDisplay:10.37,2013-05-04 11:26:00,
2013-05-04 07:31:00,69.5,67.1,29.77,ENE,62,0.0,0.0,92,0.00,CLR,OVC,0.00,WeatherDisplay:10.37,2013-05-04 11:31:00,
2013-05-04 07:36:00,69.8,67.4,29.77,ENE,62,0.0,0.0,92,0.00,CLR,OVC,0.00,WeatherDisplay:10.37,2013-05-04 11:36:00,
2013-05-04 07:41:00,69.9,67.5,29.77,ENE,65,1.1,2.2,92,0.00,CLR,OVC,0.00,WeatherDisplay:10.37,2013-05-04 11:41:00,
2013-05-04 07:47:00,70.1,67.7,29.77,ENE,59,0.0,0.0,92,0.00,CLR,OVC,0.00,WeatherDisplay:10.37,2013-05-04 11:47:00,
2013-05-04 07:52:00,70.2,67.8,29.77,ENE,59,0.0,0.0,92,0.00,CLR,OVC,0.00,WeatherDisplay:10.37,2013-05-04 11:52:00,
2013-05-04 07:57:00,70.5,67.7,29.77,ENE,59,0.0,0.0,91,0.00,CLR,OVC,0.00,WeatherDisplay:10.37,2013-05-04 11:57:00,
2013-05-04 08:03:00,70.7,67.9,29.77,ENE,59,0.0,0.0,91,0.00,CLR,OVC,0.00,WeatherDisplay:10.37,2013-05-04 12:03:00,
2013-05-04 08:08:00,71.0,68.2,29.78,ENE,59,0.0,0.0,91,0.00,CLR,OVC,0.00,WeatherDisplay:10.37,2013-05-04 12:08:00,
2013-05-04 08:13:00,71.0,68.2,29.78,ENE,59,0.0,0.0,91,0.00,CLR,OVC,0.00,WeatherDisplay:10.37,2013-05-04 12:13:00,
2013-05-04 08:18:00,71.1,68.3,29.78,ENE,59,0.0,0.0,91,0.00,CLR,OVC,0.00,WeatherDisplay:10.37,2013-05-04 12:18:00,
2013-05-04 08:24:00,71.1,68.0,29.78,ENE,59,0.0,0.0,90,0.00,CLR,OVC,0.00,WeatherDisplay:10.37,2013-05-04 12:24:00,
2013-05-04 08:29:00,71.5,68.4,29.78,ENE,59,0.0,0.0,90,0.00,CLR,OVC,0.00,WeatherDisplay:10.37,2013-05-04 12:29:00,
2013-05-04 08:34:00,71.7,68.6,29.78,ENE,59,0.0,0.0,90,0.00,CLR,OVC,0.00,WeatherDisplay:10.37,2013-05-04 12:34:00,
2013-05-04 08:39:00,71.9,68.8,29.78,ENE,59,0.0,0.0,90,0.00,CLR,OVC,0.00,WeatherDisplay:10.37,2013-05-04 12:39:00,
2013-05-04 08:44:00,72.0,68.9,29.78,ENE,59,0.0,0.0,90,0.00,CLR,OVC,0.00,WeatherDisplay:10.37,2013-05-04 12:44:00,
2013-05-04 08:49:00,72.2,68.8,29.78,NNW,329,2.8,4.6,89,0.00,CLR,OVC,0.00,WeatherDisplay:10.37,2013-05-04 12:49:00,
2013-05-04 08:54:00,72.1,68.7,29.78,WNW,289,3.1,9.2,89,0.00,CLR,OVC,0.00,WeatherDisplay:10.37,2013-05-04 12:54:00,
2013-05-04 08:59:00,72.0,67.9,29.78,NW,309,3.5,8.1,87,0.00,CLR,OVC,0.00,WeatherDisplay:10.37,2013-05-04 12:59:00,
2013-05-04 09:03:00,72.3,68.2,29.78,NNW,328,3.9,5.8,87,0.00,CLR,OVC,0.00,WeatherDisplay:10.37,2013-05-04 13:03:00,
2013-05-04 09:08:00,72.6,68.2,29.78,NW,326,5.9,6.9,86,0.00,CLR,OVC,0.00,WeatherDisplay:10.37,2013-05-04 13:08:00,
2013-05-04 09:13:00,72.9,68.1,29.78,North,353,3.2,5.8,85,0.00,CLR,OVC,0.00,WeatherDisplay:10.37,2013-05-04 13:13:00,
2013-05-04 09:18:00,73.2,68.1,29.78,NW,308,3.3,6.9,84,0.00,CLR,OVC,0.00,WeatherDisplay:10.37,2013-05-04 13:18:00,
2013-05-04 09:23:00,73.4,67.9,29.78,NNE,21,4.1,9.2,83,0.00,CLR,OVC,0.00,WeatherDisplay:10.37,2013-05-04 13:23:00,
2013-05-04 09:28:00,73.7,68.2,29.78,WNW,284,5.2,8.3,83,0.00,CLR,OVC,0.00,WeatherDisplay:10.37,2013-05-04 13:28:00,
2013-05-04 09:33:00,74.1,67.9,29.78,WNW,294,5.7,8.1,81,0.00,CLR,OVC,0.00,WeatherDisplay:10.37,2013-05-04 13:33:00,
2013-05-04 09:38:00,74.7,67.8,29.78,NNE,32,4.6,10.4,79,0.00,CLR,OVC,0.00,WeatherDisplay:10.37,2013-05-04 13:38:00,
2013-05-04 09:43:00,75.1,68.1,29.78,NW,315,4.8,8.1,79,0.00,CLR,OVC,0.00,WeatherDisplay:10.37,2013-05-04 13:43:00,
2013-05-04 09:48:00,75.0,68.0,29.78,NNW,333,5.4,11.5,79,0.00,CLR,OVC,0.00,WeatherDisplay:10.37,2013-05-04 13:48:00,
2013-05-04 09:53:00,75.5,68.2,29.78,WNW,292,5.9,8.1,78,0.00,CLR,OVC,0.00,WeatherDisplay:10.37,2013-05-04 13:53:00,
2013-05-04 09:58:00,75.6,67.9,29.79,NW,313,5.5,10.4,77,0.00,CLR,OVC,0.00,WeatherDisplay:10.37,2013-05-04 13:58:00,
2013-05-04 10:03:00,75.9,67.4,29.79,WNW,289,5.1,9.4,75,0.00,CLR,OVC,0.00,WeatherDisplay:10.37,2013-05-04 14:03:00,
2013-05-04 10:08:00,76.3,67.4,29.79,West,277,2.2,5.5,74,0.00,CLR,OVC,0.00,WeatherDisplay:10.37,2013-05-04 14:08:00,
2013-05-04 10:13:00,76.8,67.1,29.79,WNW,287,5.0,9.0,72,0.00,CLR,OVC,0.00,WeatherDisplay:10.37,2013-05-04 14:13:00,
2013-05-04 10:18:00,76.7,67.0,29.79,WNW,287,4.4,11.5,72,0.00,CLR,OVC,0.00,WeatherDisplay:10.37,2013-05-04 14:18:00,
2013-05-04 10:23:00,77.3,68.0,29.79,West,271,5.0,7.6,73,0.00,CLR,OVC,0.00,WeatherDisplay:10.37,2013-05-04 14:23:00,
2013-05-04 10:28:00,77.4,67.3,29.79,WNW,295,5.4,8.1,71,0.00,CLR,OVC,0.00,WeatherDisplay:10.37,2013-05-04 14:28:00,
2013-05-04 10:33:00,77.2,67.5,29.79,WNW,292,7.0,7.0,72,0.00,CLR,OVC,0.00,WeatherDisplay:10.37,2013-05-04 14:33:00,
2013-05-04 10:38:00,77.5,68.2,29.79,NNW,342,5.5,8.1,73,0.00,CLR,OVC,0.00,WeatherDisplay:10.37,2013-05-04 14:38:00,
2013-05-04 10:43:00,77.8,68.0,29.79,NNW,329,6.0,9.2,72,0.00,CLR,OVC,0.00,WeatherDisplay:10.37,2013-05-04 14:43:00,
2013-05-04 10:48:00,78.2,68.4,29.79,West,270,4.1,5.8,72,0.00,CLR,OVC,0.00,WeatherDisplay:10.37,2013-05-04 14:48:00,
2013-05-04 10:53:00,78.2,68.4,29.78,North,360,6.0,8.1,72,0.00,CLR,OVC,0.00,WeatherDisplay:10.37,2013-05-04 14:53:00,
2013-05-04 10:58:00,78.7,68.5,29.78,NNW,328,3.2,5.8,71,0.00,CLR,OVC,0.00,WeatherDisplay:10.37,2013-05-04 14:58:00,
2013-05-04 11:03:00,79.0,68.4,29.78,North,356,6.9,11.5,70,0.00,CLR,OVC,0.00,WeatherDisplay:10.37,2013-05-04 15:03:00,
2013-05-04 11:08:00,79.3,68.7,29.79,WNW,294,5.0,6.9,70,0.00,CLR,OVC,0.00,WeatherDisplay:10.37,2013-05-04 15:08:00,
2013-05-04 11:13:00,79.5,68.4,29.78,North,357,6.3,12.7,69,0.00,CLR,OVC,0.00,WeatherDisplay:10.37,2013-05-04 15:13:00,
2013-05-04 11:18:00,79.9,68.4,29.79,NW,316,3.6,9.2,68,0.00,CLR,OVC,0.00,WeatherDisplay:10.37,2013-05-04 15:18:00,
2013-05-04 11:23:00,80.4,68.9,29.79,NW,312,6.6,11.5,68,0.00,CLR,OVC,0.00,WeatherDisplay:10.37,2013-05-04 15:23:00,
2013-05-04 11:28:00,79.5,68.0,29.79,West,267,7.2,10.4,68,0.00,CLR,OVC,0.00,WeatherDisplay:10.37,2013-05-04 15:28:00,
2013-05-04 11:33:00,78.9,67.9,29.80,West,275,7.1,10.4,69,0.00,CLR,OVC,0.00,WeatherDisplay:10.37,2013-05-04 15:33:00,
2013-05-04 11:38:00,79.5,68.4,29.80,NW,305,4.9,7.0,69,0.00,CLR,OVC,0.00,WeatherDisplay:10.37,2013-05-04 15:38:00,
2013-05-04 11:43:00,80.0,68.9,29.80,NNE,32,8.4,11.5,69,0.00,CLR,OVC,0.00,WeatherDisplay:10.37,2013-05-04 15:43:00,
2013-05-04 11:48:00,79.4,67.9,29.81,West,271,7.0,13.4,68,0.00,CLR,OVC,0.00,WeatherDisplay:10.37,2013-05-04 15:48:00,
2013-05-04 11:53:00,78.1,68.3,29.81,WNW,291,7.1,12.7,72,0.00,CLR,OVC,0.00,WeatherDisplay:10.37,2013-05-04 15:53:00,
2013-05-04 11:58:00,79.0,68.8,29.81,West,281,6.8,13.8,71,0.00,CLR,OVC,0.00,WeatherDisplay:10.37,2013-05-04 15:58:00,
2013-05-04 12:03:00,78.9,67.9,29.81,West,271,6.8,11.5,69,0.00,CLR,OVC,0.00,WeatherDisplay:10.37,2013-05-04 16:03:00,
2013-05-04 12:08:00,78.7,68.5,29.81,NW,322,6.1,9.2,71,0.00,CLR,OVC,0.00,WeatherDisplay:10.37,2013-05-04 16:08:00,
2013-05-04 12:13:00,79.1,68.5,29.81,NW,326,7.8,10.4,70,0.00,CLR,OVC,0.00,WeatherDisplay:10.37,2013-05-04 16:13:00,
2013-05-04 12:18:00,78.9,68.7,29.81,NNW,336,3.8,6.9,71,0.00,CLR,OVC,0.00,WeatherDisplay:10.37,2013-05-04 16:18:00,
2013-05-04 12:23:00,79.3,68.7,29.80,SE,127,4.8,9.2,70,0.00,CLR,OVC,0.00,WeatherDisplay:10.37,2013-05-04 16:23:00,
2013-05-04 12:28:00,80.0,69.3,29.80,NW,320,6.9,11.5,70,0.00,CLR,OVC,0.00,WeatherDisplay:10.37,2013-05-04 16:28:00,
2013-05-04 12:33:00,79.5,68.4,29.80,NW,311,6.0,6.9,69,0.00,CLR,OVC,0.00,WeatherDisplay:10.37,2013-05-04 16:33:00,
2013-05-04 12:38:00,79.8,68.7,29.80,NNW,342,5.0,8.1,69,0.00,CLR,OVC,0.00,WeatherDisplay:10.37,2013-05-04 16:38:00,
2013-05-04 12:43:00,79.9,68.0,29.80,North,4,4.7,8.1,67,0.00,CLR,OVC,0.00,WeatherDisplay:10.37,2013-05-04 16:43:00,
2013-05-04 12:48:00,80.4,68.9,29.80,NW,304,6.5,11.5,68,0.00,CLR,OVC,0.00,WeatherDisplay:10.37,2013-05-04 16:48:00,
2013-05-04 12:53:00,79.9,68.4,29.80,NW,323,5.9,10.4,68,0.00,CLR,OVC,0.00,WeatherDisplay:10.37,2013-05-04 16:53:00,
2013-05-04 12:58:00,79.3,67.4,29.80,WNW,294,7.4,12.7,67,0.00,CLR,OVC,0.00,WeatherDisplay:10.37,2013-05-04 16:58:00,
2013-05-04 13:03:00,79.3,68.2,29.80,WNW,299,7.9,11.5,69,0.00,CLR,OVC,0.00,WeatherDisplay:10.37,2013-05-04 17:03:00,
2013-05-04 13:08:00,80.0,68.5,29.80,WNW,284,7.4,16.1,68,0.00,CLR,OVC,0.00,WeatherDisplay:10.37,2013-05-04 17:08:00,
2013-05-04 13:13:00,80.0,68.5,29.80,WNW,294,5.2,9.2,68,0.00,CLR,OVC,0.00,WeatherDisplay:10.37,2013-05-04 17:13:00,
2013-05-04 13:18:00,79.4,67.9,29.80,West,278,10.1,12.7,68,0.00,CLR,OVC,0.00,WeatherDisplay:10.37,2013-05-04 17:18:00,
2013-05-04 13:23:00,80.0,68.5,29.79,West,281,5.9,12.6,68,0.00,CLR,OVC,0.00,WeatherDisplay:10.37,2013-05-04 17:23:00,
2013-05-04 13:28:00,79.3,68.2,29.79,WNW,291,7.1,13.8,69,0.00,CLR,OVC,0.00,WeatherDisplay:10.37,2013-05-04 17:28:00,
2013-05-04 13:33:00,78.7,68.1,29.79,WSW,257,9.7,15.0,70,0.00,CLR,OVC,0.00,WeatherDisplay:10.37,2013-05-04 17:33:00,
2013-05-04 13:38:00,79.8,68.7,29.79,NW,304,6.7,15.0,69,0.00,CLR,OVC,0.00,WeatherDisplay:10.37,2013-05-04 17:38:00,
2013-05-04 13:43:00,79.7,68.2,29.79,WNW,284,7.7,10.3,68,0.00,CLR,OVC,0.00,WeatherDisplay:10.37,2013-05-04 17:43:00,
2013-05-04 13:48:00,80.4,68.0,29.79,WNW,291,4.4,6.9,66,0.00,CLR,OVC,0.00,WeatherDisplay:10.37,2013-05-04 17:48:00,
2013-05-04 13:53:00,80.3,68.3,29.79,WNW,296,7.1,10.4,67,0.00,CLR,OVC,0.00,WeatherDisplay:10.37,2013-05-04 17:53:00,
2013-05-04 13:58:00,79.8,68.3,29.79,West,260,6.3,9.2,68,0.00,CLR,OVC,0.00,WeatherDisplay:10.37,2013-05-04 17:58:00,
2013-05-04 14:03:00,79.1,68.9,29.79,North,353,5.6,9.2,71,0.00,CLR,OVC,0.00,WeatherDisplay:10.37,2013-05-04 18:03:00,
2013-05-04 14:08:00,79.5,69.3,29.79,NW,323,8.3,16.1,71,0.00,CLR,OVC,0.00,WeatherDisplay:10.37,2013-05-04 18:08:00,
2013-05-04 14:13:00,78.3,68.5,29.80,WNW,284,10.0,13.8,72,0.00,CLR,OVC,0.00,WeatherDisplay:10.37,2013-05-04 18:13:00,
2013-05-04 14:18:00,78.1,68.3,29.79,West,272,9.4,11.5,72,0.00,CLR,OVC,0.00,WeatherDisplay:10.37,2013-05-04 18:18:00,
2013-05-04 14:23:00,76.7,68.9,29.80,WNW,292,10.0,17.3,77,0.00,CLR,OVC,0.00,WeatherDisplay:10.37,2013-05-04 18:23:00,
2013-05-04 14:28:00,76.8,68.7,29.79,West,278,11.9,20.7,76,0.00,CLR,OVC,0.00,WeatherDisplay:10.37,2013-05-04 18:28:00,
2013-05-04 14:33:00,76.9,68.0,29.79,West,281,12.1,19.6,74,0.00,CLR,OVC,0.00,WeatherDisplay:10.37,2013-05-04 18:33:00,
2013-05-04 14:38:00,77.4,68.9,29.79,West,268,7.6,16.1,75,0.00,CLR,OVC,0.00,WeatherDisplay:10.37,2013-05-04 18:38:00,
2013-05-04 14:43:00,76.9,68.4,29.79,NW,306,8.8,15.0,75,0.00,CLR,OVC,0.00,WeatherDisplay:10.37,2013-05-04 18:43:00,
2013-05-04 14:48:00,76.4,68.3,29.79,NW,319,9.4,18.4,76,0.00,CLR,OVC,0.00,WeatherDisplay:10.37,2013-05-04 18:48:00,
2013-05-04 14:53:00,75.8,68.4,29.79,WNW,284,9.1,16.1,78,0.00,CLR,OVC,0.00,WeatherDisplay:10.37,2013-05-04 18:53:00,
2013-05-04 14:58:00,76.3,68.2,29.78,NW,309,9.1,17.3,76,0.00,CLR,OVC,0.00,WeatherDisplay:10.37,2013-05-04 18:58:00,
2013-05-04 15:03:00,77.0,67.7,29.78,NW,304,9.5,18.4,73,0.00,CLR,OVC,0.00,WeatherDisplay:10.37,2013-05-04 19:03:00,
2013-05-04 15:08:00,76.9,67.6,29.78,West,265,10.4,20.7,73,0.00,CLR,OVC,0.00,WeatherDisplay:10.37,2013-05-04 19:08:00,
2013-05-04 15:13:00,77.3,67.6,29.78,WNW,301,9.6,18.4,72,0.00,CLR,OVC,0.00,WeatherDisplay:10.37,2013-05-04 19:13:00,
2013-05-04 15:18:00,77.3,68.4,29.78,WNW,285,6.6,13.8,74,0.00,CLR,OVC,0.00,WeatherDisplay:10.37,2013-05-04 19:18:00,
2013-05-04 15:23:00,78.2,67.6,29.78,WNW,298,7.6,16.1,70,0.00,CLR,OVC,0.00,WeatherDisplay:10.37,2013-05-04 19:23:00,
2013-05-04 15:28:00,78.4,67.8,29.78,WNW,287,7.9,12.7,70,0.00,CLR,OVC,0.00,WeatherDisplay:10.37,2013-05-04 19:28:00,
2013-05-04 15:33:00,78.0,67.4,29.78,WNW,296,9.1,14.7,70,0.00,CLR,OVC,0.00,WeatherDisplay:10.37,2013-05-04 19:33:00,
2013-05-04 15:38:00,77.1,67.4,29.77,West,277,11.5,15.0,72,0.00,CLR,OVC,0.00,WeatherDisplay:10.37,2013-05-04 19:38:00,
2013-05-04 15:43:00,77.4,67.7,29.77,WSW,251,11.2,17.3,72,0.00,CLR,OVC,0.00,WeatherDisplay:10.37,2013-05-04 19:43:00,
2013-05-04 15:48:00,77.3,68.4,29.77,WSW,248,7.9,13.8,74,0.00,CLR,OVC,0.00,WeatherDisplay:10.37,2013-05-04 19:48:00,
2013-05-04 15:53:00,77.5,68.6,29.77,WNW,301,8.1,8.1,74,0.00,CLR,OVC,0.00,WeatherDisplay:10.37,2013-05-04 19:53:00,
2013-05-04 15:58:00,77.7,68.4,29.77,West,261,9.5,15.0,73,0.00,CLR,OVC,0.00,WeatherDisplay:10.37,2013-05-04 19:58:00,
2013-05-04 16:03:00,78.2,69.2,29.77,West,272,8.0,16.1,74,0.00,CLR,OVC,0.00,WeatherDisplay:10.37,2013-05-04 20:03:00,
2013-05-04 16:08:00,78.1,69.1,29.77,WNW,291,8.3,20.7,74,0.00,CLR,OVC,0.00,WeatherDisplay:10.37,2013-05-04 20:08:00,
2013-05-04 16:13:00,78.2,69.2,29.76,West,261,7.6,12.7,74,0.00,CLR,OVC,0.00,WeatherDisplay:10.37,2013-05-04 20:13:00,
2013-05-04 16:18:00,78.2,69.2,29.76,West,275,9.0,17.3,74,0.00,CLR,OVC,0.00,WeatherDisplay:10.37,2013-05-04 20:18:00,
2013-05-04 16:23:00,77.2,68.7,29.76,West,278,7.7,16.1,75,0.00,CLR,OVC,0.00,WeatherDisplay:10.37,2013-05-04 20:23:00,
2013-05-04 16:28:00,77.3,69.1,29.76,West,270,9.0,13.8,76,0.00,CLR,OVC,0.00,WeatherDisplay:10.37,2013-05-04 20:28:00,
2013-05-04 16:33:00,77.1,68.6,29.76,WNW,284,9.7,10.4,75,0.00,CLR,OVC,0.00,WeatherDisplay:10.37,2013-05-04 20:33:00,
2013-05-04 16:38:00,76.2,68.8,29.76,West,264,9.5,12.7,78,0.00,CLR,OVC,0.00,WeatherDisplay:10.37,2013-05-04 20:38:00,
2013-05-04 16:43:00,76.3,68.6,29.76,WNW,292,9.4,12.7,77,0.00,CLR,OVC,0.00,WeatherDisplay:10.37,2013-05-04 20:43:00,
2013-05-04 16:48:00,76.2,68.8,29.76,NW,309,7.3,11.5,78,0.00,CLR,OVC,0.00,WeatherDisplay:10.37,2013-05-04 20:48:00,
2013-05-04 16:53:00,76.3,68.9,29.76,NW,318,4.6,8.1,78,0.00,CLR,OVC,0.00,WeatherDisplay:10.37,2013-05-04 20:53:00,
2013-05-04 16:58:00,76.5,69.1,29.76,WNW,285,7.4,11.5,78,0.00,CLR,OVC,0.00,WeatherDisplay:10.37,2013-05-04 20:58:00,
2013-05-04 17:03:00,75.6,69.0,29.76,West,260,10.1,12.7,80,0.00,CLR,OVC,0.00,WeatherDisplay:10.37,2013-05-04 21:03:00,
2013-05-04 17:08:00,75.4,68.4,29.75,West,271,8.7,10.4,79,0.00,CLR,OVC,0.00,WeatherDisplay:10.37,2013-05-04 21:08:00,
2013-05-04 17:13:00,75.9,69.3,29.75,WSW,247,5.5,9.2,80,0.00,CLR,OVC,0.00,WeatherDisplay:10.37,2013-05-04 21:13:00,
2013-05-04 17:18:00,76.0,69.7,29.75,WNW,289,5.0,9.2,81,0.00,CLR,OVC,0.00,WeatherDisplay:10.37,2013-05-04 21:18:00,
2013-05-04 17:23:00,75.8,70.3,29.75,WNW,288,3.6,9.2,83,0.00,CLR,OVC,0.00,WeatherDisplay:10.37,2013-05-04 21:23:00,
2013-05-04 17:28:00,75.7,68.4,29.75,WNW,285,9.3,13.4,78,0.00,CLR,OVC,0.00,WeatherDisplay:10.37,2013-05-04 21:28:00,
2013-05-04 17:33:00,76.7,68.9,29.75,West,271,5.1,9.2,77,0.00,CLR,OVC,0.00,WeatherDisplay:10.37,2013-05-04 21:33:00,
2013-05-04 17:38:00,77.5,68.6,29.75,SW,234,7.3,9.2,74,0.00,CLR,OVC,0.00,WeatherDisplay:10.37,2013-05-04 21:38:00,
2013-05-04 17:43:00,77.5,69.3,29.75,SW,234,7.2,13.8,76,0.00,CLR,OVC,0.00,WeatherDisplay:10.37,2013-05-04 21:43:00,
2013-05-04 17:48:00,78.3,69.7,29.75,West,265,2.9,8.1,75,0.00,CLR,OVC,0.00,WeatherDisplay:10.37,2013-05-04 21:48:00,
2013-05-04 17:53:00,79.2,69.0,29.75,West,277,6.5,6.9,71,0.00,CLR,OVC,0.00,WeatherDisplay:10.37,2013-05-04 21:53:00,
2013-05-04 17:58:00,78.9,69.1,29.75,North,349,3.4,5.8,72,0.00,CLR,OVC,0.00,WeatherDisplay:10.37,2013-05-04 21:58:00,
2013-05-04 18:03:00,78.3,69.3,29.75,NW,309,5.8,9.2,74,0.00,CLR,OVC,0.00,WeatherDisplay:10.37,2013-05-04 22:03:00,
2013-05-04 18:08:00,77.9,69.3,29.75,NW,323,5.1,8.5,75,0.00,CLR,OVC,0.00,WeatherDisplay:10.37,2013-05-04 22:08:00,
2013-05-04 18:13:00,77.7,69.5,29.75,WNW,299,4.2,5.8,76,0.00,CLR,OVC,0.00,WeatherDisplay:10.37,2013-05-04 22:13:00,
2013-05-04 18:18:00,77.9,68.9,29.75,NNW,347,3.6,5.8,74,0.00,CLR,OVC,0.00,WeatherDisplay:10.37,2013-05-04 22:18:00,
2013-05-04 18:23:00,79.0,69.2,29.76,NW,315,2.5,4.6,72,0.00,CLR,OVC,0.00,WeatherDisplay:10.37,2013-05-04 22:23:00,
2013-05-04 18:28:00,79.3,69.1,29.76,NNW,328,5.0,8.1,71,0.00,CLR,OVC,0.00,WeatherDisplay:10.37,2013-05-04 22:28:00,
2013-05-04 18:33:00,79.5,69.3,29.76,WNW,302,4.5,10.4,71,0.00,CLR,OVC,0.00,WeatherDisplay:10.37,2013-05-04 22:33:00,
2013-05-04 18:38:00,79.4,69.2,29.76,NW,304,7.5,12.7,71,0.00,CLR,OVC,0.00,WeatherDisplay:10.37,2013-05-04 22:38:00,
2013-05-04 18:43:00,79.3,69.5,29.76,North,11,4.4,8.1,72,0.00,CLR,OVC,0.00,WeatherDisplay:10.37,2013-05-04 22:43:00,
2013-05-04 18:48:00,79.4,69.6,29.76,NW,313,5.2,6.9,72,0.00,CLR,OVC,0.00,WeatherDisplay:10.37,2013-05-04 22:48:00,
2013-05-04 18:53:00,79.3,69.1,29.76,WNW,295,4.4,8.1,71,0.00,CLR,OVC,0.00,WeatherDisplay:10.37,2013-05-04 22:53:00,
2013-05-04 18:58:00,79.4,68.8,29.76,WNW,296,4.2,6.9,70,0.00,CLR,OVC,0.00,WeatherDisplay:10.37,2013-05-04 22:58:00,
2013-05-04 19:03:00,79.3,68.2,29.76,NNW,329,5.9,10.4,69,0.00,CLR,OVC,0.00,WeatherDisplay:10.37,2013-05-04 23:03:00,
2013-05-04 19:08:00,78.8,68.6,29.76,North,360,6.7,8.1,71,0.00,CLR,OVC,0.00,WeatherDisplay:10.37,2013-05-04 23:08:00,
2013-05-04 19:13:00,78.2,68.4,29.77,NW,318,5.4,9.2,72,0.00,CLR,OVC,0.00,WeatherDisplay:10.37,2013-05-04 23:13:00,
2013-05-04 19:18:00,77.9,68.5,29.77,NNW,329,2.5,4.6,73,0.00,CLR,OVC,0.00,WeatherDisplay:10.37,2013-05-04 23:18:00,
2013-05-04 19:23:00,77.8,68.8,29.77,NNW,337,2.9,8.1,74,0.00,CLR,OVC,0.00,WeatherDisplay:10.37,2013-05-04 23:23:00,
2013-05-04 19:28:00,77.3,68.4,29.77,NW,305,5.8,7.8,74,0.00,CLR,OVC,0.00,WeatherDisplay:10.37,2013-05-04 23:28:00,
2013-05-04 19:33:00,77.0,68.5,29.77,NW,304,5.4,8.1,75,0.00,CLR,OVC,0.00,WeatherDisplay:10.37,2013-05-04 23:33:00,
2013-05-04 19:38:00,76.8,68.7,29.77,NW,326,5.4,10.4,76,0.00,CLR,OVC,0.00,WeatherDisplay:10.37,2013-05-04 23:38:00,
2013-05-04 19:43:00,76.4,68.3,29.78,NW,319,8.0,12.7,76,0.00,CLR,OVC,0.00,WeatherDisplay:10.37,2013-05-04 23:43:00,
2013-05-04 19:48:00,76.4,68.3,29.77,WNW,292,4.8,8.1,76,0.00,CLR,OVC,0.00,WeatherDisplay:10.37,2013-05-04 23:48:00,
2013-05-04 19:53:00,76.3,67.8,29.77,NW,311,4.6,11.5,75,0.00,CLR,OVC,0.00,WeatherDisplay:10.37,2013-05-04 23:53:00,
2013-05-04 19:58:00,76.3,68.2,29.77,NW,315,6.0,6.0,76,0.00,CLR,OVC,0.00,WeatherDisplay:10.37,2013-05-04 23:58:00,
2013-05-04 20:03:00,76.2,68.1,29.78,NNW,335,5.4,11.5,76,0.00,CLR,OVC,0.00,WeatherDisplay:10.37,2013-05-05 00:03:00,
2013-05-04 20:08:00,76.1,68.0,29.78,West,274,5.4,10.4,76,0.00,CLR,OVC,0.00,WeatherDisplay:10.37,2013-05-05 00:08:00,
2013-05-04 20:13:00,75.8,67.3,29.78,NNW,335,8.1,12.7,75,0.00,CLR,OVC,0.00,WeatherDisplay:10.37,2013-05-05 00:13:00,
2013-05-04 20:18:00,75.6,67.5,29.78,NW,313,8.4,10.4,76,0.00,CLR,OVC,0.00,WeatherDisplay:10.37,2013-05-05 00:18:00,
2013-05-04 20:23:00,75.6,67.5,29.78,North,7,7.0,15.0,76,0.00,CLR,OVC,0.00,WeatherDisplay:10.37,2013-05-05 00:23:00,
2013-05-04 20:28:00,75.5,67.8,29.78,NNW,339,2.6,8.1,77,0.00,CLR,OVC,0.00,WeatherDisplay:10.37,2013-05-05 00:28:00,
2013-05-04 20:33:00,75.4,67.7,29.78,North,349,5.7,11.5,77,0.00,CLR,OVC,0.00,WeatherDisplay:10.37,2013-05-05 00:33:00,
2013-05-04 20:38:00,75.2,67.5,29.79,NW,306,6.8,12.2,77,0.00,CLR,OVC,0.00,WeatherDisplay:10.37,2013-05-05 00:38:00,
2013-05-04 20:43:00,75.1,67.4,29.79,NNW,333,6.0,11.5,77,0.00,CLR,OVC,0.00,WeatherDisplay:10.37,2013-05-05 00:43:00,
2013-05-04 20:48:00,75.2,67.9,29.79,WNW,299,2.9,10.4,78,0.00,CLR,OVC,0.00,WeatherDisplay:10.37,2013-05-05 00:48:00,
2013-05-04 20:53:00,74.9,67.6,29.79,NNE,24,8.0,15.0,78,0.00,CLR,OVC,0.00,WeatherDisplay:10.37,2013-05-05 00:53:00,
2013-05-04 20:58:00,74.8,67.5,29.80,NNE,27,7.6,16.1,78,0.00,CLR,OVC,0.00,WeatherDisplay:10.37,2013-05-05 00:58:00,
2013-05-04 21:03:00,74.9,67.6,29.80,West,272,5.8,11.5,78,0.00,CLR,OVC,0.00,WeatherDisplay:10.37,2013-05-05 01:03:00,
2013-05-04 21:08:00,74.8,67.5,29.80,NE,34,8.6,11.5,78,0.00,CLR,OVC,0.00,WeatherDisplay:10.37,2013-05-05 01:08:00,
2013-05-04 21:13:00,74.5,67.9,29.80,NW,318,8.3,16.1,80,0.00,CLR,OVC,0.00,WeatherDisplay:10.37,2013-05-05 01:13:00,
2013-05-04 21:18:00,74.5,67.9,29.80,WNW,301,6.7,12.7,80,0.00,CLR,OVC,0.00,WeatherDisplay:10.37,2013-05-05 01:18:00,
2013-05-04 21:23:00,74.6,68.4,29.81,NW,313,5.7,9.5,81,0.00,CLR,OVC,0.00,WeatherDisplay:10.37,2013-05-05 01:23:00,
2013-05-04 21:28:00,74.5,67.6,29.81,NW,320,5.5,9.3,79,0.00,CLR,OVC,0.00,WeatherDisplay:10.37,2013-05-05 01:28:00,
2013-05-04 21:33:00,74.4,67.1,29.81,NNW,328,5.0,9.2,78,0.00,CLR,OVC,0.00,WeatherDisplay:10.37,2013-05-05 01:33:00,
2013-05-04 21:38:00,74.3,67.0,29.81,NW,309,8.1,18.4,78,0.00,CLR,OVC,0.00,WeatherDisplay:10.37,2013-05-05 01:38:00,
2013-05-04 21:43:00,74.0,66.3,29.82,NW,316,3.5,7.3,77,0.00,CLR,OVC,0.00,WeatherDisplay:10.37,2013-05-05 01:43:00,
2013-05-04 21:48:00,74.0,67.1,29.82,NW,323,6.4,11.5,79,0.00,CLR,OVC,0.00,WeatherDisplay:10.37,2013-05-05 01:48:00,
2013-05-04 21:53:00,74.0,67.8,29.83,West,281,5.4,9.2,81,0.00,CLR,OVC,0.00,WeatherDisplay:10.37,2013-05-05 01:53:00,
2013-05-04 21:58:00,74.0,68.2,29.83,NW,312,6.7,11.5,82,0.00,CLR,OVC,0.00,WeatherDisplay:10.37,2013-05-05 01:58:00,
2013-05-04 22:03:00,73.6,68.5,29.83,West,260,5.5,10.4,84,0.00,CLR,OVC,0.00,WeatherDisplay:10.37,2013-05-05 02:03:00,
2013-05-04 22:08:00,73.4,68.6,29.83,WNW,289,10.0,18.4,85,0.00,CLR,OVC,0.00,WeatherDisplay:10.37,2013-05-05 02:08:00,
2013-05-04 22:13:00,73.4,68.6,29.83,West,263,9.3,15.0,85,0.00,CLR,OVC,0.00,WeatherDisplay:10.37,2013-05-05 02:13:00,
2013-05-04 22:18:00,72.9,68.5,29.84,NNW,332,7.0,16.1,86,0.00,CLR,OVC,0.00,WeatherDisplay:10.37,2013-05-05 02:18:00,
2013-05-04 22:23:00,72.8,68.0,29.84,NW,319,7.2,9.2,85,0.00,CLR,OVC,0.00,WeatherDisplay:10.37,2013-05-05 02:23:00,
2013-05-04 22:28:00,72.9,68.5,29.84,West,268,8.7,18.4,86,0.00,CLR,OVC,0.00,WeatherDisplay:10.37,2013-05-05 02:28:00,
2013-05-04 22:33:00,72.7,68.6,29.84,West,277,6.2,10.4,87,0.00,CLR,OVC,0.00,WeatherDisplay:10.37,2013-05-05 02:33:00,
2013-05-04 22:38:00,72.6,68.5,29.85,WNW,299,6.3,11.5,87,0.00,CLR,OVC,0.00,WeatherDisplay:10.37,2013-05-05 02:38:00,
2013-05-04 22:43:00,72.0,67.6,29.85,WNW,301,7.0,13.8,86,0.00,CLR,OVC,0.00,WeatherDisplay:10.37,2013-05-05 02:43:00,
2013-05-04 22:48:00,72.0,67.9,29.85,West,260,8.4,9.3,87,0.00,CLR,OVC,0.00,WeatherDisplay:10.37,2013-05-05 02:48:00,
2013-05-04 22:53:00,71.6,67.5,29.85,NNW,337,6.4,16.1,87,0.00,CLR,OVC,0.00,WeatherDisplay:10.37,2013-05-05 02:53:00,
2013-05-04 22:58:00,71.5,67.8,29.85,NW,312,6.0,13.8,88,0.00,CLR,OVC,0.00,WeatherDisplay:10.37,2013-05-05 02:58:00,
2013-05-04 23:03:00,71.5,67.8,29.85,WNW,291,4.6,9.2,88,0.00,CLR,OVC,0.00,WeatherDisplay:10.37,2013-05-05 03:03:00,
2013-05-04 23:08:00,71.3,67.6,29.85,WNW,284,6.3,13.8,88,0.00,CLR,OVC,0.00,WeatherDisplay:10.37,2013-05-05 03:08:00,
2013-05-04 23:13:00,71.3,67.6,29.85,WNW,301,7.3,12.7,88,0.00,CLR,OVC,0.00,WeatherDisplay:10.37,2013-05-05 03:13:00,
2013-05-04 23:18:00,71.3,67.6,29.85,North,350,4.6,9.2,88,0.00,CLR,OVC,0.00,WeatherDisplay:10.37,2013-05-05 03:18:00,
2013-05-04 23:23:00,71.5,67.8,29.86,NW,323,7.5,10.4,88,0.00,CLR,OVC,0.00,WeatherDisplay:10.37,2013-05-05 03:23:00,
2013-05-04 23:28:00,71.3,67.9,29.86,North,360,3.7,5.8,89,0.01,RA,OVC,0.01,WeatherDisplay:10.37,2013-05-05 03:28:00,
2013-05-04 23:33:00,71.1,67.7,29.86,NNW,347,5.8,11.5,89,0.02,RA,OVC,0.02,WeatherDisplay:10.37,2013-05-05 03:33:00,
2013-05-04 23:38:00,70.7,67.3,29.86,NW,311,8.0,15.0,89,0.02,RA,OVC,0.02,WeatherDisplay:10.37,2013-05-05 03:38:00,
2013-05-04 23:43:00,70.4,67.0,29.86,NW,311,8.6,12.7,89,0.02,CLR,OVC,0.02,WeatherDisplay:10.37,2013-05-05 03:43:00,
2013-05-04 23:48:00,70.7,67.6,29.86,NW,311,6.4,13.1,90,0.02,CLR,OVC,0.02,WeatherDisplay:10.37,2013-05-05 03:48:00,
2013-05-04 23:53:00,70.5,67.4,29.86,NW,309,5.7,15.0,90,0.02,CLR,OVC,0.02,WeatherDisplay:10.37,2013-05-05 03:53:00,
2013-05-04 23:58:00,70.5,67.4,29.87,WNW,299,8.1,11.5,90,0.02,CLR,OVC,0.02,WeatherDisplay:10.37,2013-05-05 03:58:00,